sensor_id;sensor_type;location;lat;lon;timestamp;P1;durP1;ratioP1;P2;durP2;ratioP2
28545;SDS011;15749;49.606;8.738;2023-03-01T00:01:58;7.80;;;6.43;;
28545;SDS011;15749;49.606;8.738;2023-03-01T00:04:27;7.93;;;6.90;;
28545;SDS011;15749;49.606;8.738;2023-03-01T00:06:56;6.50;;;5.87;;
28545;SDS011;15749;49.606;8.738;2023-03-01T00:09:27;7.53;;;6.73;;
28545;SDS011;15749;49.606;8.738;2023-03-01T00:11:58;7.37;;;6.60;;
28545;SDS011;15749;49.606;8.738;2023-03-01T00:14:27;7.70;;;6.60;;
28545;SDS011;15749;49.606;8.738;2023-03-01T00:16:56;8.37;;;6.80;;
28545;SDS011;15749;49.606;8.738;2023-03-01T00:19:25;7.30;;;6.60;;
28545;SDS011;15749;49.606;8.738;2023-03-01T00:21:54;7.33;;;6.57;;
28545;SDS011;15749;49.606;8.738;2023-03-01T00:24:23;6.57;;;5.97;;
28545;SDS011;15749;49.606;8.738;2023-03-01T00:26:52;7.33;;;6.50;;
28545;SDS011;15749;49.606;8.738;2023-03-01T00:29:25;7.17;;;6.30;;
28545;SDS011;15749;49.606;8.738;2023-03-01T00:31:57;6.80;;;6.10;;
28545;SDS011;15749;49.606;8.738;2023-03-01T00:34:26;7.20;;;6.50;;
28545;SDS011;15749;49.606;8.738;2023-03-01T00:36:55;8.37;;;6.77;;
28545;SDS011;15749;49.606;8.738;2023-03-01T00:39:32;8.30;;;6.70;;
28545;SDS011;15749;49.606;8.738;2023-03-01T00:42:03;9.47;;;7.10;;
28545;SDS011;15749;49.606;8.738;2023-03-01T00:44:35;8.13;;;7.27;;
28545;SDS011;15749;49.606;8.738;2023-03-01T00:47:04;8.90;;;7.23;;
28545;SDS011;15749;49.606;8.738;2023-03-01T00:49:33;8.10;;;7.27;;
28545;SDS011;15749;49.606;8.738;2023-03-01T00:52:03;9.30;;;7.83;;
28545;SDS011;15749;49.606;8.738;2023-03-01T00:54:32;8.43;;;7.57;;
28545;SDS011;15749;49.606;8.738;2023-03-01T00:57:01;8.37;;;7.40;;
28545;SDS011;15749;49.606;8.738;2023-03-01T00:59:31;8.33;;;7.53;;
28545;SDS011;15749;49.606;8.738;2023-03-01T01:02:01;7.10;;;6.40;;
28545;SDS011;15749;49.606;8.738;2023-03-01T01:04:49;6.60;;;5.90;;
28545;SDS011;15749;49.606;8.738;2023-03-01T01:07:18;8.27;;;7.00;;
28545;SDS011;15749;49.606;8.738;2023-03-01T01:09:48;7.30;;;6.60;;
28545;SDS011;15749;49.606;8.738;2023-03-01T01:12:17;8.63;;;7.27;;
28545;SDS011;15749;49.606;8.738;2023-03-01T01:14:46;9.47;;;6.97;;
28545;SDS011;15749;49.606;8.738;2023-03-01T01:17:16;9.67;;;7.20;;
28545;SDS011;15749;49.606;8.738;2023-03-01T01:19:45;8.13;;;7.23;;
28545;SDS011;15749;49.606;8.738;2023-03-01T01:22:15;7.57;;;6.60;;
28545;SDS011;15749;49.606;8.738;2023-03-01T01:24:44;8.10;;;7.30;;
28545;SDS011;15749;49.606;8.738;2023-03-01T01:27:13;8.43;;;7.10;;
28545;SDS011;15749;49.606;8.738;2023-03-01T01:29:42;9.20;;;7.47;;
28545;SDS011;15749;49.606;8.738;2023-03-01T01:32:11;10.90;;;8.20;;
28545;SDS011;15749;49.606;8.738;2023-03-01T01:34:41;8.63;;;7.60;;
28545;SDS011;15749;49.606;8.738;2023-03-01T01:37:10;8.00;;;6.90;;
28545;SDS011;15749;49.606;8.738;2023-03-01T01:39:42;8.33;;;7.53;;
28545;SDS011;15749;49.606;8.738;2023-03-01T01:42:12;9.20;;;7.63;;
28545;SDS011;15749;49.606;8.738;2023-03-01T01:44:45;9.57;;;7.87;;
28545;SDS011;15749;49.606;8.738;2023-03-01T01:47:15;9.67;;;7.50;;
28545;SDS011;15749;49.606;8.738;2023-03-01T01:49:48;8.97;;;8.07;;
28545;SDS011;15749;49.606;8.738;2023-03-01T01:52:23;8.50;;;7.33;;
28545;SDS011;15749;49.606;8.738;2023-03-01T01:54:56;10.40;;;8.83;;
28545;SDS011;15749;49.606;8.738;2023-03-01T01:57:32;9.47;;;8.30;;
28545;SDS011;15749;49.606;8.738;2023-03-01T02:00:05;9.67;;;8.30;;
28545;SDS011;15749;49.606;8.738;2023-03-01T02:02:40;8.67;;;7.77;;
28545;SDS011;15749;49.606;8.738;2023-03-01T02:05:15;10.30;;;7.93;;
28545;SDS011;15749;49.606;8.738;2023-03-01T02:07:55;7.87;;;7.07;;
28545;SDS011;15749;49.606;8.738;2023-03-01T02:10:26;9.27;;;8.10;;
28545;SDS011;15749;49.606;8.738;2023-03-01T02:12:56;7.60;;;6.83;;
28545;SDS011;15749;49.606;8.738;2023-03-01T02:15:26;8.67;;;7.53;;
28545;SDS011;15749;49.606;8.738;2023-03-01T02:18:01;7.97;;;7.17;;
28545;SDS011;15749;49.606;8.738;2023-03-01T02:20:34;8.97;;;7.80;;
28545;SDS011;15749;49.606;8.738;2023-03-01T02:23:16;8.63;;;7.73;;
28545;SDS011;15749;49.606;8.738;2023-03-01T02:25:48;9.90;;;7.80;;
28545;SDS011;15749;49.606;8.738;2023-03-01T02:28:27;9.70;;;8.50;;
28545;SDS011;15749;49.606;8.738;2023-03-01T02:30:59;9.37;;;8.40;;
28545;SDS011;15749;49.606;8.738;2023-03-01T02:33:50;9.87;;;8.60;;
28545;SDS011;15749;49.606;8.738;2023-03-01T02:36:21;10.10;;;8.47;;
28545;SDS011;15749;49.606;8.738;2023-03-01T02:38:55;9.07;;;8.17;;
28545;SDS011;15749;49.606;8.738;2023-03-01T02:41:28;9.07;;;8.17;;
28545;SDS011;15749;49.606;8.738;2023-03-01T02:44:05;9.63;;;8.57;;
28545;SDS011;15749;49.606;8.738;2023-03-01T02:46:41;9.80;;;8.57;;
28545;SDS011;15749;49.606;8.738;2023-03-01T02:49:17;9.23;;;8.30;;
28545;SDS011;15749;49.606;8.738;2023-03-01T02:55:12;9.63;;;8.63;;
28545;SDS011;15749;49.606;8.738;2023-03-01T02:57:44;10.10;;;8.63;;
28545;SDS011;15749;49.606;8.738;2023-03-01T03:00:20;11.77;;;9.93;;
28545;SDS011;15749;49.606;8.738;2023-03-01T03:02:53;10.00;;;9.00;;
28545;SDS011;15749;49.606;8.738;2023-03-01T03:05:27;9.63;;;8.50;;
28545;SDS011;15749;49.606;8.738;2023-03-01T03:07:59;9.70;;;8.70;;
28545;SDS011;15749;49.606;8.738;2023-03-01T03:10:35;9.57;;;8.57;;
28545;SDS011;15749;49.606;8.738;2023-03-01T03:13:08;10.77;;;9.17;;
28545;SDS011;15749;49.606;8.738;2023-03-01T03:15:43;9.00;;;8.10;;
28545;SDS011;15749;49.606;8.738;2023-03-01T03:18:13;10.33;;;8.43;;
28545;SDS011;15749;49.606;8.738;2023-03-01T03:20:44;8.93;;;8.00;;
28545;SDS011;15749;49.606;8.738;2023-03-01T03:23:14;9.80;;;8.73;;
28545;SDS011;15749;49.606;8.738;2023-03-01T03:25:44;9.53;;;8.53;;
28545;SDS011;15749;49.606;8.738;2023-03-01T03:28:15;8.67;;;7.77;;
28545;SDS011;15749;49.606;8.738;2023-03-01T03:30:47;9.27;;;8.00;;
28545;SDS011;15749;49.606;8.738;2023-03-01T03:33:17;10.77;;;8.63;;
28545;SDS011;15749;49.606;8.738;2023-03-01T03:35:47;10.20;;;8.53;;
28545;SDS011;15749;49.606;8.738;2023-03-01T03:38:18;11.33;;;8.97;;
28545;SDS011;15749;49.606;8.738;2023-03-01T03:40:49;9.47;;;8.47;;
28545;SDS011;15749;49.606;8.738;2023-03-01T03:43:22;10.57;;;8.83;;
28545;SDS011;15749;49.606;8.738;2023-03-01T03:45:53;9.17;;;8.00;;
28545;SDS011;15749;49.606;8.738;2023-03-01T03:48:24;9.13;;;8.17;;
28545;SDS011;15749;49.606;8.738;2023-03-01T03:50:55;9.43;;;8.27;;
28545;SDS011;15749;49.606;8.738;2023-03-01T03:53:26;8.27;;;7.47;;
28545;SDS011;15749;49.606;8.738;2023-03-01T03:55:57;8.60;;;7.70;;
28545;SDS011;15749;49.606;8.738;2023-03-01T03:58:27;10.53;;;9.27;;
28545;SDS011;15749;49.606;8.738;2023-03-01T04:00:57;11.03;;;8.90;;
28545;SDS011;15749;49.606;8.738;2023-03-01T04:03:28;9.80;;;8.30;;
28545;SDS011;15749;49.606;8.738;2023-03-01T04:06:00;10.27;;;9.00;;
28545;SDS011;15749;49.606;8.738;2023-03-01T04:08:31;9.73;;;8.73;;
28545;SDS011;15749;49.606;8.738;2023-03-01T04:11:01;9.93;;;8.83;;
28545;SDS011;15749;49.606;8.738;2023-03-01T04:13:55;9.97;;;8.80;;
28545;SDS011;15749;49.606;8.738;2023-03-01T04:16:28;9.13;;;8.07;;
28545;SDS011;15749;49.606;8.738;2023-03-01T04:18:59;9.73;;;8.47;;
28545;SDS011;15749;49.606;8.738;2023-03-01T04:21:28;10.17;;;9.17;;
28545;SDS011;15749;49.606;8.738;2023-03-01T04:23:57;9.67;;;8.67;;
28545;SDS011;15749;49.606;8.738;2023-03-01T04:26:30;10.27;;;9.17;;
28545;SDS011;15749;49.606;8.738;2023-03-01T04:29:00;10.07;;;9.07;;
28545;SDS011;15749;49.606;8.738;2023-03-01T04:31:31;10.63;;;9.33;;
28545;SDS011;15749;49.606;8.738;2023-03-01T04:34:01;10.93;;;9.53;;
28545;SDS011;15749;49.606;8.738;2023-03-01T04:36:30;10.77;;;9.67;;
28545;SDS011;15749;49.606;8.738;2023-03-01T04:39:03;10.43;;;9.27;;
28545;SDS011;15749;49.606;8.738;2023-03-01T04:41:39;11.00;;;9.83;;
28545;SDS011;15749;49.606;8.738;2023-03-01T04:44:10;10.80;;;9.67;;
28545;SDS011;15749;49.606;8.738;2023-03-01T04:46:41;11.37;;;10.13;;
28545;SDS011;15749;49.606;8.738;2023-03-01T04:49:11;11.03;;;9.93;;
28545;SDS011;15749;49.606;8.738;2023-03-01T04:51:40;10.60;;;9.30;;
28545;SDS011;15749;49.606;8.738;2023-03-01T04:54:10;10.40;;;9.30;;
28545;SDS011;15749;49.606;8.738;2023-03-01T04:56:39;10.30;;;9.27;;
28545;SDS011;15749;49.606;8.738;2023-03-01T04:59:09;9.73;;;8.80;;
28545;SDS011;15749;49.606;8.738;2023-03-01T05:01:39;10.53;;;9.43;;
28545;SDS011;15749;49.606;8.738;2023-03-01T05:04:10;10.53;;;9.27;;
28545;SDS011;15749;49.606;8.738;2023-03-01T05:06:40;10.17;;;9.07;;
28545;SDS011;15749;49.606;8.738;2023-03-01T05:09:10;10.77;;;9.60;;
28545;SDS011;15749;49.606;8.738;2023-03-01T05:11:39;10.40;;;9.30;;
28545;SDS011;15749;49.606;8.738;2023-03-01T05:14:09;10.47;;;9.43;;
28545;SDS011;15749;49.606;8.738;2023-03-01T05:16:39;10.03;;;8.93;;
28545;SDS011;15749;49.606;8.738;2023-03-01T05:19:10;10.30;;;9.07;;
28545;SDS011;15749;49.606;8.738;2023-03-01T05:21:42;10.60;;;9.50;;
28545;SDS011;15749;49.606;8.738;2023-03-01T05:24:29;10.63;;;9.07;;
28545;SDS011;15749;49.606;8.738;2023-03-01T05:27:01;10.87;;;9.27;;
28545;SDS011;15749;49.606;8.738;2023-03-01T05:29:31;12.03;;;10.07;;
28545;SDS011;15749;49.606;8.738;2023-03-01T05:32:02;11.00;;;9.83;;
28545;SDS011;15749;49.606;8.738;2023-03-01T05:34:35;10.67;;;9.57;;
28545;SDS011;15749;49.606;8.738;2023-03-01T05:37:05;11.90;;;9.73;;
28545;SDS011;15749;49.606;8.738;2023-03-01T05:39:35;10.87;;;9.10;;
28545;SDS011;15749;49.606;8.738;2023-03-01T05:42:05;11.80;;;10.07;;
28545;SDS011;15749;49.606;8.738;2023-03-01T05:44:35;10.70;;;9.60;;
28545;SDS011;15749;49.606;8.738;2023-03-01T05:47:05;11.10;;;9.40;;
28545;SDS011;15749;49.606;8.738;2023-03-01T05:49:36;10.60;;;9.50;;
28545;SDS011;15749;49.606;8.738;2023-03-01T05:52:06;11.33;;;10.00;;
28545;SDS011;15749;49.606;8.738;2023-03-01T05:54:36;11.83;;;10.23;;
28545;SDS011;15749;49.606;8.738;2023-03-01T05:57:06;10.40;;;9.37;;
28545;SDS011;15749;49.606;8.738;2023-03-01T05:59:35;9.97;;;8.93;;
28545;SDS011;15749;49.606;8.738;2023-03-01T06:02:04;10.87;;;9.40;;
28545;SDS011;15749;49.606;8.738;2023-03-01T06:04:35;11.40;;;10.10;;
28545;SDS011;15749;49.606;8.738;2023-03-01T06:07:05;11.00;;;9.50;;
28545;SDS011;15749;49.606;8.738;2023-03-01T06:09:34;11.70;;;10.13;;
28545;SDS011;15749;49.606;8.738;2023-03-01T06:12:04;11.37;;;10.20;;
28545;SDS011;15749;49.606;8.738;2023-03-01T06:14:34;10.63;;;9.53;;
28545;SDS011;15749;49.606;8.738;2023-03-01T06:17:03;11.77;;;9.80;;
28545;SDS011;15749;49.606;8.738;2023-03-01T06:19:33;12.47;;;10.80;;
28545;SDS011;15749;49.606;8.738;2023-03-01T06:22:03;10.37;;;9.30;;
28545;SDS011;15749;49.606;8.738;2023-03-01T06:24:33;11.30;;;9.73;;
28545;SDS011;15749;49.606;8.738;2023-03-01T06:27:03;11.00;;;9.87;;
28545;SDS011;15749;49.606;8.738;2023-03-01T06:29:33;10.80;;;9.70;;
28545;SDS011;15749;49.606;8.738;2023-03-01T06:32:02;10.93;;;9.83;;
28545;SDS011;15749;49.606;8.738;2023-03-01T06:34:32;11.37;;;10.00;;
28545;SDS011;15749;49.606;8.738;2023-03-01T06:37:03;10.47;;;9.37;;
28545;SDS011;15749;49.606;8.738;2023-03-01T06:39:33;11.10;;;9.90;;
28545;SDS011;15749;49.606;8.738;2023-03-01T06:42:03;11.53;;;9.50;;
28545;SDS011;15749;49.606;8.738;2023-03-01T06:44:32;11.40;;;10.20;;
28545;SDS011;15749;49.606;8.738;2023-03-01T06:47:02;11.13;;;9.93;;
28545;SDS011;15749;49.606;8.738;2023-03-01T06:49:32;11.80;;;9.87;;
28545;SDS011;15749;49.606;8.738;2023-03-01T06:52:01;11.87;;;9.80;;
28545;SDS011;15749;49.606;8.738;2023-03-01T06:54:33;11.13;;;9.93;;
28545;SDS011;15749;49.606;8.738;2023-03-01T06:57:02;10.37;;;9.37;;
28545;SDS011;15749;49.606;8.738;2023-03-01T06:59:31;10.27;;;8.87;;
28545;SDS011;15749;49.606;8.738;2023-03-01T07:02:01;12.67;;;10.70;;
28545;SDS011;15749;49.606;8.738;2023-03-01T07:04:30;12.13;;;10.70;;
28545;SDS011;15749;49.606;8.738;2023-03-01T07:07:00;11.03;;;9.93;;
28545;SDS011;15749;49.606;8.738;2023-03-01T07:09:31;11.60;;;10.40;;
28545;SDS011;15749;49.606;8.738;2023-03-01T07:12:01;12.07;;;10.23;;
28545;SDS011;15749;49.606;8.738;2023-03-01T07:14:31;11.00;;;9.77;;
28545;SDS011;15749;49.606;8.738;2023-03-01T07:17:00;11.87;;;9.80;;
28545;SDS011;15749;49.606;8.738;2023-03-01T07:19:30;12.13;;;10.40;;
28545;SDS011;15749;49.606;8.738;2023-03-01T07:21:59;11.90;;;9.97;;
28545;SDS011;15749;49.606;8.738;2023-03-01T07:24:29;10.97;;;9.87;;
28545;SDS011;15749;49.606;8.738;2023-03-01T07:26:59;11.07;;;9.67;;
28545;SDS011;15749;49.606;8.738;2023-03-01T07:29:29;10.73;;;9.40;;
28545;SDS011;15749;49.606;8.738;2023-03-01T07:31:58;11.87;;;9.80;;
28545;SDS011;15749;49.606;8.738;2023-03-01T07:34:28;10.57;;;9.43;;
28545;SDS011;15749;49.606;8.738;2023-03-01T07:36:58;11.40;;;10.17;;
28545;SDS011;15749;49.606;8.738;2023-03-01T07:39:27;10.57;;;9.57;;
28545;SDS011;15749;49.606;8.738;2023-03-01T07:41:57;11.60;;;10.30;;
28545;SDS011;15749;49.606;8.738;2023-03-01T07:44:27;11.37;;;9.90;;
28545;SDS011;15749;49.606;8.738;2023-03-01T07:46:57;10.50;;;9.27;;
28545;SDS011;15749;49.606;8.738;2023-03-01T07:49:26;10.83;;;9.73;;
28545;SDS011;15749;49.606;8.738;2023-03-01T07:51:55;10.50;;;9.40;;
28545;SDS011;15749;49.606;8.738;2023-03-01T07:54:25;10.77;;;9.30;;
28545;SDS011;15749;49.606;8.738;2023-03-01T07:56:55;10.47;;;9.00;;
28545;SDS011;15749;49.606;8.738;2023-03-01T07:59:25;11.23;;;9.53;;
28545;SDS011;15749;49.606;8.738;2023-03-01T08:01:57;10.83;;;9.70;;
28545;SDS011;15749;49.606;8.738;2023-03-01T08:04:26;12.63;;;10.23;;
28545;SDS011;15749;49.606;8.738;2023-03-01T08:06:56;12.00;;;10.37;;
28545;SDS011;15749;49.606;8.738;2023-03-01T08:09:25;10.17;;;9.17;;
28545;SDS011;15749;49.606;8.738;2023-03-01T08:11:56;10.80;;;9.70;;
28545;SDS011;15749;49.606;8.738;2023-03-01T08:14:28;11.40;;;10.20;;
28545;SDS011;15749;49.606;8.738;2023-03-01T08:16:58;11.53;;;10.33;;
28545;SDS011;15749;49.606;8.738;2023-03-01T08:19:27;12.63;;;10.07;;
28545;SDS011;15749;49.606;8.738;2023-03-01T08:21:57;11.37;;;9.37;;
28545;SDS011;15749;49.606;8.738;2023-03-01T08:24:28;10.23;;;9.23;;
28545;SDS011;15749;49.606;8.738;2023-03-01T08:26:57;11.43;;;10.17;;
28545;SDS011;15749;49.606;8.738;2023-03-01T08:29:28;11.40;;;10.20;;
28545;SDS011;15749;49.606;8.738;2023-03-01T08:31:59;11.87;;;10.67;;
28545;SDS011;15749;49.606;8.738;2023-03-01T08:34:29;10.90;;;9.80;;
28545;SDS011;15749;49.606;8.738;2023-03-01T08:36:59;11.80;;;10.57;;
28545;SDS011;15749;49.606;8.738;2023-03-01T08:39:28;11.10;;;8.93;;
28545;SDS011;15749;49.606;8.738;2023-03-01T08:42:01;11.10;;;10.00;;
28545;SDS011;15749;49.606;8.738;2023-03-01T08:44:32;11.70;;;10.50;;
28545;SDS011;15749;49.606;8.738;2023-03-01T08:47:02;10.60;;;9.60;;
28545;SDS011;15749;49.606;8.738;2023-03-01T08:49:32;10.50;;;9.37;;
28545;SDS011;15749;49.606;8.738;2023-03-01T08:52:16;10.70;;;9.70;;
28545;SDS011;15749;49.606;8.738;2023-03-01T08:54:47;11.30;;;10.20;;
28545;SDS011;15749;49.606;8.738;2023-03-01T08:57:17;9.97;;;8.97;;
28545;SDS011;15749;49.606;8.738;2023-03-01T08:59:48;12.37;;;10.17;;
28545;SDS011;15749;49.606;8.738;2023-03-01T09:02:17;11.73;;;10.27;;
28545;SDS011;15749;49.606;8.738;2023-03-01T09:04:47;11.07;;;9.97;;
28545;SDS011;15749;49.606;8.738;2023-03-01T09:07:17;11.23;;;10.17;;
28545;SDS011;15749;49.606;8.738;2023-03-01T09:09:46;11.47;;;10.27;;
28545;SDS011;15749;49.606;8.738;2023-03-01T09:12:16;12.17;;;10.37;;
28545;SDS011;15749;49.606;8.738;2023-03-01T09:14:45;12.33;;;10.40;;
28545;SDS011;15749;49.606;8.738;2023-03-01T09:17:16;12.20;;;11.00;;
28545;SDS011;15749;49.606;8.738;2023-03-01T09:19:48;12.80;;;10.70;;
28545;SDS011;15749;49.606;8.738;2023-03-01T09:22:18;12.30;;;11.00;;
28545;SDS011;15749;49.606;8.738;2023-03-01T09:24:47;11.87;;;10.67;;
28545;SDS011;15749;49.606;8.738;2023-03-01T09:27:16;13.07;;;11.50;;
28545;SDS011;15749;49.606;8.738;2023-03-01T09:29:47;10.93;;;9.83;;
28545;SDS011;15749;49.606;8.738;2023-03-01T09:32:16;10.93;;;9.83;;
28545;SDS011;15749;49.606;8.738;2023-03-01T09:34:46;11.60;;;10.40;;
28545;SDS011;15749;49.606;8.738;2023-03-01T09:37:34;12.37;;;9.97;;
28545;SDS011;15749;49.606;8.738;2023-03-01T09:40:09;11.87;;;9.60;;
28545;SDS011;15749;49.606;8.738;2023-03-01T09:42:48;11.60;;;10.40;;
28545;SDS011;15749;49.606;8.738;2023-03-01T09:45:29;11.17;;;10.07;;
28545;SDS011;15749;49.606;8.738;2023-03-01T09:48:05;10.90;;;9.77;;
28545;SDS011;15749;49.606;8.738;2023-03-01T09:50:41;10.80;;;9.70;;
28545;SDS011;15749;49.606;8.738;2023-03-01T09:53:15;11.07;;;9.90;;
28545;SDS011;15749;49.606;8.738;2023-03-01T09:55:48;11.43;;;10.30;;
28545;SDS011;15749;49.606;8.738;2023-03-01T09:58:29;11.53;;;10.40;;
28545;SDS011;15749;49.606;8.738;2023-03-01T10:01:16;12.60;;;11.33;;
28545;SDS011;15749;49.606;8.738;2023-03-01T10:04:10;11.17;;;10.07;;
28545;SDS011;15749;49.606;8.738;2023-03-01T10:07:04;11.33;;;10.23;;
28545;SDS011;15749;49.606;8.738;2023-03-01T10:09:49;11.67;;;10.47;;
28545;SDS011;15749;49.606;8.738;2023-03-01T10:12:19;11.33;;;10.23;;
28545;SDS011;15749;49.606;8.738;2023-03-01T10:14:54;11.10;;;10.10;;
28545;SDS011;15749;49.606;8.738;2023-03-01T10:17:32;11.43;;;10.23;;
28545;SDS011;15749;49.606;8.738;2023-03-01T10:20:10;11.87;;;10.77;;
28545;SDS011;15749;49.606;8.738;2023-03-01T10:22:46;12.40;;;10.67;;
28545;SDS011;15749;49.606;8.738;2023-03-01T10:25:26;11.67;;;10.37;;
28545;SDS011;15749;49.606;8.738;2023-03-01T10:28:16;12.03;;;10.87;;
28545;SDS011;15749;49.606;8.738;2023-03-01T10:30:48;11.67;;;10.47;;
28545;SDS011;15749;49.606;8.738;2023-03-01T10:33:20;11.37;;;10.17;;
28545;SDS011;15749;49.606;8.738;2023-03-01T10:35:52;10.87;;;9.90;;
28545;SDS011;15749;49.606;8.738;2023-03-01T10:38:22;11.70;;;10.47;;
28545;SDS011;15749;49.606;8.738;2023-03-01T10:40:52;12.07;;;10.87;;
28545;SDS011;15749;49.606;8.738;2023-03-01T10:43:26;11.83;;;10.63;;
28545;SDS011;15749;49.606;8.738;2023-03-01T10:46:27;10.93;;;9.80;;
28545;SDS011;15749;49.606;8.738;2023-03-01T10:51:55;10.63;;;9.63;;
28545;SDS011;15749;49.606;8.738;2023-03-01T10:54:50;10.73;;;9.73;;
28545;SDS011;15749;49.606;8.738;2023-03-01T10:57:33;11.20;;;10.20;;
28545;SDS011;15749;49.606;8.738;2023-03-01T11:00:24;11.33;;;10.23;;
28545;SDS011;15749;49.606;8.738;2023-03-01T11:03:02;10.53;;;9.53;;
28545;SDS011;15749;49.606;8.738;2023-03-01T11:05:52;11.00;;;9.90;;
28545;SDS011;15749;49.606;8.738;2023-03-01T11:08:38;11.60;;;9.67;;
28545;SDS011;15749;49.606;8.738;2023-03-01T11:11:15;10.93;;;9.80;;
28545;SDS011;15749;49.606;8.738;2023-03-01T11:13:58;11.67;;;10.57;;
28545;SDS011;15749;49.606;8.738;2023-03-01T11:16:57;10.50;;;9.50;;
28545;SDS011;15749;49.606;8.738;2023-03-01T11:19:30;11.20;;;9.50;;
28545;SDS011;15749;49.606;8.738;2023-03-01T11:22:05;9.40;;;8.50;;
28545;SDS011;15749;49.606;8.738;2023-03-01T11:24:40;9.30;;;8.40;;
28545;SDS011;15749;49.606;8.738;2023-03-01T11:27:16;11.10;;;10.00;;
28545;SDS011;15749;49.606;8.738;2023-03-01T11:29:51;11.23;;;10.17;;
28545;SDS011;15749;49.606;8.738;2023-03-01T11:32:24;10.67;;;9.67;;
28545;SDS011;15749;49.606;8.738;2023-03-01T11:34:59;11.33;;;10.27;;
28545;SDS011;15749;49.606;8.738;2023-03-01T11:37:35;11.30;;;10.20;;
28545;SDS011;15749;49.606;8.738;2023-03-01T11:40:13;11.60;;;10.33;;
28545;SDS011;15749;49.606;8.738;2023-03-01T11:42:54;10.77;;;9.73;;
28545;SDS011;15749;49.606;8.738;2023-03-01T11:45:39;10.87;;;9.77;;
28545;SDS011;15749;49.606;8.738;2023-03-01T11:51:21;10.40;;;9.40;;
28545;SDS011;15749;49.606;8.738;2023-03-01T11:54:01;10.87;;;9.77;;
28545;SDS011;15749;49.606;8.738;2023-03-01T11:56:43;11.43;;;10.23;;
28545;SDS011;15749;49.606;8.738;2023-03-01T11:59:24;10.57;;;9.57;;
28545;SDS011;15749;49.606;8.738;2023-03-01T12:05:37;10.27;;;9.30;;
28545;SDS011;15749;49.606;8.738;2023-03-01T12:08:38;10.50;;;9.50;;
28545;SDS011;15749;49.606;8.738;2023-03-01T12:11:16;11.07;;;10.07;;
28545;SDS011;15749;49.606;8.738;2023-03-01T12:14:00;10.90;;;9.80;;
28545;SDS011;15749;49.606;8.738;2023-03-01T12:20:12;9.80;;;8.90;;
28545;SDS011;15749;49.606;8.738;2023-03-01T12:22:54;10.80;;;9.80;;
28545;SDS011;15749;49.606;8.738;2023-03-01T12:25:47;10.60;;;9.53;;
28545;SDS011;15749;49.606;8.738;2023-03-01T12:28:29;10.97;;;9.87;;
28545;SDS011;15749;49.606;8.738;2023-03-01T12:31:32;10.43;;;9.43;;
28545;SDS011;15749;49.606;8.738;2023-03-01T12:34:46;10.50;;;9.50;;
28545;SDS011;15749;49.606;8.738;2023-03-01T12:37:33;10.03;;;8.30;;
28545;SDS011;15749;49.606;8.738;2023-03-01T12:40:16;10.37;;;9.37;;
28545;SDS011;15749;49.606;8.738;2023-03-01T12:43:04;11.10;;;10.10;;
28545;SDS011;15749;49.606;8.738;2023-03-01T12:45:50;11.37;;;10.20;;
28545;SDS011;15749;49.606;8.738;2023-03-01T12:48:32;9.83;;;8.93;;
28545;SDS011;15749;49.606;8.738;2023-03-01T12:51:10;10.20;;;9.23;;
28545;SDS011;15749;49.606;8.738;2023-03-01T12:53:46;10.13;;;9.17;;
28545;SDS011;15749;49.606;8.738;2023-03-01T12:56:18;11.87;;;10.67;;
28545;SDS011;15749;49.606;8.738;2023-03-01T12:58:52;10.23;;;9.23;;
28545;SDS011;15749;49.606;8.738;2023-03-01T13:01:39;10.00;;;9.00;;
28545;SDS011;15749;49.606;8.738;2023-03-01T13:04:21;9.77;;;8.87;;
28545;SDS011;15749;49.606;8.738;2023-03-01T13:09:55;10.43;;;9.33;;
28545;SDS011;15749;49.606;8.738;2023-03-01T13:12:48;10.33;;;9.23;;
28545;SDS011;15749;49.606;8.738;2023-03-01T13:15:25;10.53;;;9.43;;
28545;SDS011;15749;49.606;8.738;2023-03-01T13:18:03;9.57;;;8.63;;
28545;SDS011;15749;49.606;8.738;2023-03-01T13:20:56;9.73;;;8.83;;
28545;SDS011;15749;49.606;8.738;2023-03-01T13:23:34;9.90;;;8.90;;
28545;SDS011;15749;49.606;8.738;2023-03-01T13:26:07;10.17;;;9.20;;
28545;SDS011;15749;49.606;8.738;2023-03-01T13:28:49;9.57;;;8.47;;
28545;SDS011;15749;49.606;8.738;2023-03-01T13:34:45;8.20;;;7.40;;
28545;SDS011;15749;49.606;8.738;2023-03-01T13:37:21;9.50;;;8.50;;
28545;SDS011;15749;49.606;8.738;2023-03-01T13:39:57;8.80;;;8.00;;
28545;SDS011;15749;49.606;8.738;2023-03-01T13:42:36;8.77;;;7.87;;
28545;SDS011;15749;49.606;8.738;2023-03-01T13:45:33;8.90;;;7.97;;
28545;SDS011;15749;49.606;8.738;2023-03-01T13:48:10;8.50;;;7.70;;
28545;SDS011;15749;49.606;8.738;2023-03-01T13:50:54;12.03;;;7.97;;
28545;SDS011;15749;49.606;8.738;2023-03-01T13:53:31;8.63;;;7.63;;
28545;SDS011;15749;49.606;8.738;2023-03-01T13:56:07;8.80;;;7.90;;
28545;SDS011;15749;49.606;8.738;2023-03-01T13:58:49;8.80;;;7.83;;
28545;SDS011;15749;49.606;8.738;2023-03-01T14:01:23;8.77;;;7.93;;
28545;SDS011;15749;49.606;8.738;2023-03-01T14:03:59;7.67;;;6.97;;
28545;SDS011;15749;49.606;8.738;2023-03-01T14:06:33;8.33;;;7.53;;
28545;SDS011;15749;49.606;8.738;2023-03-01T14:09:04;8.30;;;7.50;;
28545;SDS011;15749;49.606;8.738;2023-03-01T14:11:49;8.73;;;7.77;;
28545;SDS011;15749;49.606;8.738;2023-03-01T14:14:41;8.13;;;7.33;;
28545;SDS011;15749;49.606;8.738;2023-03-01T14:20:21;8.70;;;7.47;;
28545;SDS011;15749;49.606;8.738;2023-03-01T14:22:54;7.83;;;7.03;;
28545;SDS011;15749;49.606;8.738;2023-03-01T14:25:27;8.07;;;7.27;;
28545;SDS011;15749;49.606;8.738;2023-03-01T14:28:02;8.70;;;7.80;;
28545;SDS011;15749;49.606;8.738;2023-03-01T14:30:42;8.07;;;7.27;;
28545;SDS011;15749;49.606;8.738;2023-03-01T14:33:21;8.23;;;7.17;;
28545;SDS011;15749;49.606;8.738;2023-03-01T14:35:57;8.97;;;7.27;;
28545;SDS011;15749;49.606;8.738;2023-03-01T14:38:31;7.50;;;6.77;;
28545;SDS011;15749;49.606;8.738;2023-03-01T14:41:03;10.57;;;7.87;;
28545;SDS011;15749;49.606;8.738;2023-03-01T14:43:36;7.90;;;7.10;;
28545;SDS011;15749;49.606;8.738;2023-03-01T14:46:16;8.77;;;7.87;;
28545;SDS011;15749;49.606;8.738;2023-03-01T14:48:48;7.93;;;7.13;;
28545;SDS011;15749;49.606;8.738;2023-03-01T14:51:19;7.90;;;7.10;;
28545;SDS011;15749;49.606;8.738;2023-03-01T14:53:52;7.90;;;7.07;;
28545;SDS011;15749;49.606;8.738;2023-03-01T14:56:22;7.70;;;7.00;;
28545;SDS011;15749;49.606;8.738;2023-03-01T14:58:52;7.37;;;6.60;;
28545;SDS011;15749;49.606;8.738;2023-03-01T15:01:21;7.53;;;6.83;;
28545;SDS011;15749;49.606;8.738;2023-03-01T15:03:51;6.97;;;6.27;;
28545;SDS011;15749;49.606;8.738;2023-03-01T15:06:21;7.03;;;6.33;;
28545;SDS011;15749;49.606;8.738;2023-03-01T15:08:53;6.57;;;5.97;;
28545;SDS011;15749;49.606;8.738;2023-03-01T15:11:26;9.00;;;6.57;;
28545;SDS011;15749;49.606;8.738;2023-03-01T15:13:58;6.47;;;5.87;;
28545;SDS011;15749;49.606;8.738;2023-03-01T15:16:28;6.30;;;5.70;;
28545;SDS011;15749;49.606;8.738;2023-03-01T15:19:00;6.27;;;5.60;;
28545;SDS011;15749;49.606;8.738;2023-03-01T15:21:31;7.53;;;6.07;;
28545;SDS011;15749;49.606;8.738;2023-03-01T15:24:08;8.67;;;7.77;;
28545;SDS011;15749;49.606;8.738;2023-03-01T15:26:50;9.83;;;8.83;;
28545;SDS011;15749;49.606;8.738;2023-03-01T15:29:23;8.30;;;7.50;;
28545;SDS011;15749;49.606;8.738;2023-03-01T15:31:58;8.00;;;6.93;;
28545;SDS011;15749;49.606;8.738;2023-03-01T15:34:31;6.30;;;5.70;;
28545;SDS011;15749;49.606;8.738;2023-03-01T15:37:02;6.50;;;5.80;;
28545;SDS011;15749;49.606;8.738;2023-03-01T15:39:38;6.33;;;5.73;;
28545;SDS011;15749;49.606;8.738;2023-03-01T15:42:11;6.67;;;5.53;;
28545;SDS011;15749;49.606;8.738;2023-03-01T15:44:43;6.43;;;5.80;;